Mc Cook Ben Nelson Regional Airport
KMCK : now visible

Airfield :











YOU CAN JOIN US ON...

 
LOGIN :

Register | Disclaimer

   EN    FR    IT 

 









Legend :    VFR   Marginal VFR   IFR   Intensive IFR   Very Intensive IFR
Visi :
Ceiling :
>= 8 km
>= 3000ft
5 to 8 km
1000 to 3000 ft
1500m to 5 km
500 to 1000 ft
800 to 1500m
200 to 500 ft
< 800m
< 200 ft
Symbols :   Thunderstorms  Fog  Heavy snow  Heavy precipitations  Wind > 20 kt






- Airport Elevation : 2583 ft


KMCK - Mc Cook Ben Nelson Regional

CURRENT METAR :
  • 160844Z AUTO 04007KT 1/2SM SN FG OVC005 00/M01 A3009 RMK AO2 P0003 T00001006

EXPIRED METARs :
  • 160828Z AUTO 04010KT 1 3/4SM -SN BR OVC005 01/M01 A3009 RMK AO2 P0000 T00061006
  • 160753Z AUTO 04010KT 3SM -SN BR BKN005 OVC018 01/M01 A3010 RMK AO2 UPE34SNB47 SLP204 P0001 T00111006
  • 160653Z AUTO 03011KT 4SM UP BR BKN006 OVC015 02/01 A3011 RMK AO2 RAE40UPB40SNB18E28 CIG 004V010 SLP209 P0004 T00170006
  • 160633Z AUTO 03012KT 4SM -RA BR BKN008 OVC013 02/01 A3011 RMK AO2 SNB18E28 P0003 T00170006
  • 160605Z AUTO 02013KT 4SM -RA BR FEW008 OVC015 03/02 A3011 RMK AO2 P0001 T00330017
  • 160553Z AUTO 03010KT 4SM -RA BR OVC017 04/02 A3010 RMK AO2 RAB18 SLP204 P0002 60003 T00390022 10072 20039 400891006 53008

TAF KMCK
Valid from the 16 at 06:00 until the 17 at 06:00 UTC


160520Z 1606/1706 04008KT 3SM -RASN BR OVC005
FM160800 04009KT 1 1/2SM -SN BR OVC004
FM161200 02009KT 2SM -SN BR OVC006
FM161500 01010KT 4SM -RASN BR OVC007
FM162000 35012KT P6SM VCSH SCT007 SCT015 BKN025
FM170100 35011KT P6SM SCT015 BKN025
TEMPO 1703/1706 BKN015
KZDV FIR / North America



MET'MAP, your aeronautical weather chart ! - Copyright ORBIFLY December 2007 - Disclaimer

ORBIFLY MET'MAP TEAM :

Programming & Development : Alexandra Zaïnal
Concept & original design : Baudouin d'Aumeries
Assistance for programming : Marc-Olivier Méhu
Technical & hardware support : Manuel Goepfert

Contact : metmap@orbifly.com




SOURCES & CREDITS :

   NOAA       Earth
Advisory